Terminal Aerodrome Forecast
Issued by NWS

Home | Current Version | Previous Version | Graphics & Text | Print | Product List | Glossary On
Versions: 1 2 3 4 5 6 7 8 9 10 11 12 13 14 15 16 17 18 19 20 21 22 23 24
000
FTUS43 KTOP 230344 AAB
TAFMHK
TAF AMD
KMHK 230344Z 2304/2324 VRB02KT 2SM -FZDZ SCT003 OVC010
     FM230500 27002KT 6SM BR OVC004
     FM231500 36004KT P6SM SCT004 BKN012=

USA.gov is the U.S. government's official web portal to all federal, state and local government web resources and services.